createdAt,value
2017-10-14T00:00:15.357Z,77.10
2017-10-14T00:02:43.952Z,77.30
2017-10-14T00:05:12.263Z,77.40
2017-10-14T00:07:39.821Z,77.20
2017-10-14T00:10:07.300Z,77.50
2017-10-14T00:12:35.573Z,77.50
2017-10-14T00:15:03.837Z,77.50
2017-10-14T00:17:32.089Z,78.50
2017-10-14T00:19:59.569Z,77.50
2017-10-14T00:22:27.137Z,77.60
2017-10-14T00:24:55.410Z,77.80
2017-10-14T00:27:23.654Z,77.80
2017-10-14T00:29:51.137Z,77.70
2017-10-14T00:32:19.408Z,78.10
2017-10-14T00:34:47.722Z,78.30
2017-10-14T00:37:15.188Z,78.30
2017-10-14T00:39:42.662Z,78.30
2017-10-14T00:42:10.172Z,78.30
2017-10-14T00:44:37.641Z,78.50
2017-10-14T00:47:05.106Z,78.40
2017-10-14T00:49:32.611Z,78.70
2017-10-14T00:52:00.177Z,78.80
2017-10-14T00:54:27.690Z,78.90
2017-10-14T00:56:55.158Z,78.80
2017-10-14T00:59:22.909Z,78.70
2017-10-14T01:01:50.413Z,79.00
2017-10-14T01:04:18.154Z,79.10
2017-10-14T01:06:45.645Z,79.10
2017-10-14T01:09:13.874Z,79.70
2017-10-14T01:11:41.502Z,78.80
2017-10-14T01:14:09.084Z,78.80
2017-10-14T01:16:36.588Z,78.80
2017-10-14T01:19:04.105Z,78.90
2017-10-14T01:21:31.865Z,78.80
2017-10-14T01:23:59.384Z,78.80
2017-10-14T01:26:27.039Z,79.00
2017-10-14T01:28:55.321Z,79.10
2017-10-14T01:31:24.327Z,79.50
2017-10-14T01:33:52.746Z,79.40
2017-10-14T01:36:20.226Z,79.30
2017-10-14T01:38:47.699Z,80.00
2017-10-14T01:41:15.941Z,80.10
2017-10-14T01:43:43.424Z,80.10
2017-10-14T01:46:10.977Z,80.20
2017-10-14T01:48:38.494Z,80.40
2017-10-14T01:51:06.002Z,80.80
2017-10-14T01:53:34.267Z,80.20
2017-10-14T01:56:01.754Z,80.10
2017-10-14T01:58:29.990Z,80.50
2017-10-14T02:00:57.471Z,80.50
2017-10-14T02:03:25.694Z,80.60
2017-10-14T02:05:53.222Z,80.40
2017-10-14T02:08:20.676Z,80.60
2017-10-14T02:10:48.213Z,80.60
2017-10-14T02:13:16.443Z,80.60
2017-10-14T02:15:44.014Z,80.40
2017-10-14T02:18:11.477Z,80.60
2017-10-14T02:20:38.968Z,80.60
2017-10-14T02:23:07.285Z,80.50
2017-10-14T02:25:34.754Z,80.50
2017-10-14T02:28:02.226Z,80.50
2017-10-14T02:30:29.689Z,80.70
2017-10-14T02:32:57.161Z,80.70
2017-10-14T02:35:25.397Z,81.10
2017-10-14T02:37:53.003Z,81.00
2017-10-14T02:40:21.239Z,81.20
2017-10-14T02:42:48.820Z,81.10
2017-10-14T02:45:16.289Z,81.40
2017-10-14T02:47:44.541Z,81.30
2017-10-14T02:50:12.009Z,81.30
2017-10-14T02:52:39.486Z,81.40
2017-10-14T02:55:07.737Z,81.60
2017-10-14T02:57:35.207Z,81.50
2017-10-14T03:00:02.757Z,81.50
2017-10-14T03:02:30.233Z,81.40
2017-10-14T03:04:58.480Z,81.90
2017-10-14T03:07:26.048Z,81.80
2017-10-14T03:09:53.524Z,81.90
2017-10-14T03:12:21.752Z,82.00
2017-10-14T03:14:49.232Z,82.00
2017-10-14T03:17:16.681Z,82.00
2017-10-14T03:19:44.151Z,81.90
2017-10-14T03:22:11.719Z,81.80
2017-10-14T03:24:39.986Z,82.90
2017-10-14T03:27:07.455Z,82.20
2017-10-14T03:29:35.725Z,82.30
2017-10-14T03:32:04.035Z,82.60
2017-10-14T03:34:31.514Z,82.40
2017-10-14T03:36:58.986Z,82.50
2017-10-14T03:39:26.447Z,82.40
2017-10-14T03:41:54.017Z,82.20
2017-10-14T03:44:21.577Z,82.10
2017-10-14T03:46:49.153Z,82.20
2017-10-14T03:49:17.391Z,82.30
2017-10-14T03:51:44.870Z,82.10
2017-10-14T03:54:12.381Z,82.30
2017-10-14T03:56:39.849Z,82.30
2017-10-14T03:59:07.331Z,82.30
2017-10-14T04:01:34.805Z,83.40
2017-10-14T04:04:03.075Z,83.70
2017-10-14T04:06:30.584Z,82.90
2017-10-14T04:08:58.084Z,83.00
2017-10-14T04:11:25.647Z,82.90
2017-10-14T04:13:53.192Z,82.90
2017-10-14T04:16:20.767Z,82.90
2017-10-14T04:18:48.336Z,82.90
2017-10-14T04:21:15.809Z,82.80
2017-10-14T04:23:44.046Z,82.90
2017-10-14T04:26:11.513Z,82.80
2017-10-14T04:28:38.977Z,82.80
2017-10-14T04:31:07.213Z,82.90
2017-10-14T04:33:34.690Z,82.90
2017-10-14T04:36:03.670Z,82.80
2017-10-14T04:38:31.138Z,82.90
2017-10-14T04:40:58.718Z,82.90
2017-10-14T04:43:26.261Z,82.90
2017-10-14T04:45:54.419Z,83.70
2017-10-14T04:48:21.881Z,82.80
2017-10-14T04:50:49.358Z,82.60
2017-10-14T04:53:16.831Z,82.60
2017-10-14T04:55:45.071Z,83.00
2017-10-14T04:58:12.536Z,82.90
2017-10-14T05:00:40.776Z,83.30
2017-10-14T05:03:08.328Z,83.20
2017-10-14T05:05:35.802Z,83.20
2017-10-14T05:08:03.268Z,83.30
2017-10-14T05:10:30.749Z,83.50
2017-10-14T05:12:58.225Z,83.70
2017-10-14T05:15:26.482Z,84.10
2017-10-14T05:17:54.035Z,84.00
2017-10-14T05:20:21.506Z,84.00
2017-10-14T05:22:49.750Z,84.10
2017-10-14T05:25:17.316Z,84.00
2017-10-14T05:27:44.889Z,84.10
2017-10-14T05:30:12.443Z,83.90
2017-10-14T05:32:39.915Z,83.90
2017-10-14T05:35:08.171Z,83.80
2017-10-14T05:37:35.842Z,83.70
2017-10-14T05:40:03.307Z,84.10
2017-10-14T05:42:31.550Z,84.20
2017-10-14T05:44:59.030Z,84.20
2017-10-14T05:47:26.519Z,84.60
2017-10-14T05:49:54.758Z,84.60
2017-10-14T05:52:22.219Z,84.50
2017-10-14T05:54:49.694Z,84.60
2017-10-14T05:57:17.944Z,84.50
2017-10-14T05:59:45.457Z,84.30
2017-10-14T06:02:12.934Z,84.40
2017-10-14T06:04:40.422Z,84.40
2017-10-14T06:07:07.887Z,84.60
2017-10-14T06:09:36.134Z,84.60
2017-10-14T06:12:03.610Z,84.60
2017-10-14T06:14:31.080Z,84.40
2017-10-14T06:16:59.441Z,84.30
2017-10-14T06:19:26.910Z,84.20
2017-10-14T06:21:55.175Z,83.90
2017-10-14T06:24:22.698Z,83.80
2017-10-14T06:26:50.181Z,83.70
2017-10-14T06:29:17.657Z,83.80
2017-10-14T06:31:45.905Z,83.60
2017-10-14T06:34:13.506Z,83.60
2017-10-14T06:36:41.753Z,83.90
2017-10-14T06:39:09.233Z,83.70
2017-10-14T06:41:37.469Z,84.00
2017-10-14T06:44:04.932Z,83.90
2017-10-14T06:46:32.388Z,83.80
2017-10-14T06:49:01.395Z,83.60
2017-10-14T06:51:28.861Z,83.50
2017-10-14T06:53:57.179Z,83.50
2017-10-14T06:56:24.685Z,83.50
2017-10-14T06:58:52.240Z,83.60
2017-10-14T07:01:19.704Z,83.50
2017-10-14T07:03:47.953Z,84.40
2017-10-14T07:06:15.417Z,84.00
2017-10-14T07:08:42.977Z,84.00
2017-10-14T07:11:10.454Z,84.00
2017-10-14T07:13:38.717Z,83.80
2017-10-14T07:16:06.194Z,83.70
2017-10-14T07:18:34.430Z,83.50
2017-10-14T07:21:01.913Z,83.40
2017-10-14T07:23:29.390Z,83.20
2017-10-14T07:25:57.624Z,83.00
2017-10-14T07:28:25.101Z,82.80
2017-10-14T07:30:52.574Z,82.20
2017-10-14T07:33:20.821Z,82.50
2017-10-14T07:35:48.396Z,82.40
2017-10-14T07:38:15.883Z,82.50
2017-10-14T07:40:43.374Z,82.60
2017-10-14T07:43:10.852Z,82.40
2017-10-14T07:45:38.318Z,82.50
2017-10-14T07:48:05.841Z,82.70
2017-10-14T07:50:33.314Z,82.60
2017-10-14T07:53:00.809Z,82.90
2017-10-14T07:55:29.062Z,82.30
2017-10-14T07:57:57.342Z,82.00
2017-10-14T08:00:25.617Z,81.60
2017-10-14T08:02:53.135Z,81.50
2017-10-14T08:05:20.614Z,81.50
2017-10-14T08:07:48.345Z,81.20
2017-10-14T08:10:15.858Z,81.10
2017-10-14T08:12:43.490Z,81.40
2017-10-14T08:15:10.964Z,81.30
2017-10-14T08:17:38.431Z,80.80
2017-10-14T08:20:06.002Z,80.30
2017-10-14T08:22:34.263Z,80.20
2017-10-14T08:25:01.817Z,80.10
2017-10-14T08:27:29.365Z,80.40
2017-10-14T08:29:56.821Z,80.40
2017-10-14T08:32:24.343Z,79.80
2017-10-14T08:34:51.851Z,79.70
2017-10-14T08:37:19.335Z,79.80
2017-10-14T08:39:47.582Z,78.90
2017-10-14T08:42:15.796Z,79.00
2017-10-14T08:44:43.275Z,79.10
2017-10-14T08:47:10.739Z,78.70
2017-10-14T08:49:38.207Z,78.50
2017-10-14T08:52:05.669Z,78.40
2017-10-14T08:54:33.131Z,78.30
2017-10-14T08:57:00.753Z,79.00
2017-10-14T08:59:29.237Z,78.40
2017-10-14T09:01:56.733Z,78.40
2017-10-14T09:04:24.298Z,78.90
2017-10-14T09:06:52.540Z,78.40
2017-10-14T09:09:20.009Z,78.40
2017-10-14T09:11:47.477Z,78.20
2017-10-14T09:14:14.928Z,78.60
2017-10-14T09:16:42.490Z,78.80
2017-10-14T09:19:09.954Z,78.90
2017-10-14T09:21:37.412Z,79.10
2017-10-14T09:24:04.873Z,79.00
2017-10-14T09:26:32.336Z,78.80
2017-10-14T09:29:00.566Z,79.50
2017-10-14T09:31:28.030Z,78.60
2017-10-14T09:33:55.510Z,78.80
2017-10-14T09:36:23.009Z,79.00
2017-10-14T09:38:50.478Z,79.00
2017-10-14T09:41:17.986Z,79.40
2017-10-14T09:43:45.539Z,79.50
2017-10-14T09:46:12.997Z,79.20
2017-10-14T09:48:40.456Z,79.20
2017-10-14T09:51:08.682Z,78.60
2017-10-14T09:53:36.144Z,78.50
2017-10-14T09:56:03.613Z,78.80
2017-10-14T09:58:31.068Z,79.10
2017-10-14T10:00:58.611Z,79.20
2017-10-14T10:03:26.099Z,79.30
2017-10-14T10:05:53.604Z,79.70
2017-10-14T10:08:21.838Z,78.90
2017-10-14T10:10:49.306Z,78.90
2017-10-14T10:13:16.776Z,79.30
2017-10-14T10:15:44.234Z,79.00
2017-10-14T10:18:12.504Z,78.70
2017-10-14T10:20:40.735Z,78.80
2017-10-14T10:23:08.208Z,78.60
2017-10-14T10:25:35.675Z,78.40
2017-10-14T10:28:03.137Z,78.40
2017-10-14T10:30:30.688Z,78.60
2017-10-14T10:32:58.270Z,78.50
2017-10-14T10:35:25.811Z,78.20
2017-10-14T10:37:54.169Z,78.10
2017-10-14T10:40:21.664Z,78.00
2017-10-14T10:42:49.158Z,77.90
2017-10-14T10:45:16.697Z,78.30
2017-10-14T10:47:44.165Z,78.20
2017-10-14T10:50:11.677Z,78.40
2017-10-14T10:52:39.234Z,78.60
2017-10-14T10:55:08.209Z,78.80
2017-10-14T10:57:35.668Z,78.70
2017-10-14T11:00:03.132Z,78.50
2017-10-14T11:02:30.600Z,78.40
2017-10-14T11:04:59.568Z,77.90
2017-10-14T11:07:27.138Z,77.80
2017-10-14T11:09:54.660Z,78.00
2017-10-14T11:12:22.129Z,78.10
2017-10-14T11:14:49.638Z,77.70
2017-10-14T11:17:17.876Z,78.20
2017-10-14T11:19:45.335Z,78.20
2017-10-14T11:22:12.864Z,78.10
2017-10-14T11:24:40.378Z,77.80
2017-10-14T11:27:07.862Z,77.30
2017-10-14T11:29:35.402Z,77.00
2017-10-14T11:32:03.648Z,77.20
2017-10-14T11:34:31.122Z,77.10
2017-10-14T11:36:58.573Z,76.90
2017-10-14T11:39:26.811Z,76.00
2017-10-14T11:41:54.334Z,76.00
2017-10-14T11:44:21.813Z,76.20
2017-10-14T11:46:49.321Z,76.50
2017-10-14T11:49:16.790Z,75.90
2017-10-14T11:51:45.009Z,76.30
2017-10-14T11:54:12.512Z,76.20
2017-10-14T11:56:40.072Z,75.90
2017-10-14T11:59:07.626Z,75.90
2017-10-14T12:01:35.082Z,75.80
2017-10-14T12:04:03.313Z,76.10
2017-10-14T12:06:30.787Z,76.00
2017-10-14T12:08:58.240Z,75.90
2017-10-14T12:11:25.714Z,75.40
2017-10-14T12:13:53.190Z,76.00
2017-10-14T12:16:20.651Z,75.50
2017-10-14T12:18:48.920Z,74.90
2017-10-14T12:21:16.414Z,74.80
2017-10-14T12:23:43.891Z,74.20
2017-10-14T12:26:11.362Z,73.90
2017-10-14T12:28:38.816Z,74.10
2017-10-14T12:31:06.377Z,73.90
2017-10-14T12:33:33.858Z,73.40
2017-10-14T12:36:01.421Z,73.00
2017-10-14T12:38:29.632Z,71.90
2017-10-14T12:40:57.097Z,72.00
2017-10-14T12:43:24.564Z,71.70
2017-10-14T12:45:52.062Z,72.10
2017-10-14T12:48:19.517Z,72.20
2017-10-14T12:50:47.759Z,72.50
2017-10-14T12:53:15.234Z,72.60
2017-10-14T12:55:42.694Z,72.10
2017-10-14T12:58:10.170Z,72.40
2017-10-14T13:00:37.727Z,73.30
2017-10-14T13:03:05.215Z,73.50
2017-10-14T13:05:32.689Z,72.90
2017-10-14T13:08:00.302Z,73.30
2017-10-14T13:10:27.759Z,73.20
2017-10-14T13:12:55.225Z,73.20
2017-10-14T13:15:23.526Z,74.00
2017-10-14T13:17:51.044Z,73.90
2017-10-14T13:20:18.514Z,73.80
2017-10-14T13:22:46.745Z,73.90
2017-10-14T13:25:14.230Z,73.90
2017-10-14T13:27:42.466Z,74.50
2017-10-14T13:30:09.928Z,74.60
2017-10-14T13:32:37.380Z,74.60
2017-10-14T13:35:04.845Z,75.10
2017-10-14T13:37:32.316Z,74.90
2017-10-14T13:39:59.781Z,75.20
2017-10-14T13:42:27.241Z,75.20
2017-10-14T13:44:54.709Z,74.70
2017-10-14T13:47:22.191Z,74.80
2017-10-14T13:49:49.678Z,74.80
2017-10-14T13:52:17.142Z,75.00
2017-10-14T13:54:44.612Z,75.10
2017-10-14T13:57:12.206Z,75.20
2017-10-14T13:59:40.446Z,75.20
2017-10-14T14:02:07.932Z,75.10
2017-10-14T14:04:35.433Z,74.90
2017-10-14T14:07:02.921Z,74.90
2017-10-14T14:09:30.385Z,74.90
2017-10-14T14:11:58.619Z,74.80
2017-10-14T14:14:26.112Z,74.90
2017-10-14T14:16:53.580Z,74.70
2017-10-14T14:19:21.962Z,74.30
2017-10-14T14:21:49.436Z,74.30
2017-10-14T14:24:17.696Z,74.80
2017-10-14T14:26:45.182Z,74.70
2017-10-14T14:29:13.410Z,74.20
2017-10-14T14:31:40.882Z,74.20
2017-10-14T14:34:08.369Z,74.50
2017-10-14T14:36:36.610Z,70.50
2017-10-14T14:39:04.074Z,70.30
2017-10-14T14:41:31.526Z,67.40
2017-10-14T14:43:59.008Z,63.40
2017-10-14T14:46:27.242Z,66.40
2017-10-14T14:48:54.826Z,66.30
2017-10-14T14:51:22.339Z,68.50
2017-10-14T14:53:49.987Z,69.40
2017-10-14T14:56:17.474Z,70.20
2017-10-14T14:58:44.968Z,69.80
2017-10-14T15:01:13.204Z,66.30
2017-10-14T15:03:40.684Z,66.10
2017-10-14T15:06:08.447Z,66.40
2017-10-14T15:08:35.946Z,68.20
2017-10-14T15:11:03.566Z,69.60
2017-10-14T15:13:31.050Z,71.30
2017-10-14T15:15:58.535Z,72.20
2017-10-14T15:18:26.087Z,72.10
2017-10-14T15:20:53.653Z,72.20
2017-10-14T15:23:21.192Z,72.30
2017-10-14T15:25:48.717Z,72.50
2017-10-14T15:28:16.176Z,72.80
2017-10-14T15:30:44.419Z,73.50
2017-10-14T15:33:11.897Z,73.40
2017-10-14T15:35:39.374Z,74.00
2017-10-14T15:38:07.606Z,74.30
2017-10-14T15:40:35.091Z,74.20
2017-10-14T15:43:02.561Z,74.20
2017-10-14T15:45:31.028Z,74.30
2017-10-14T15:47:58.493Z,74.30
2017-10-14T15:50:26.728Z,74.80
2017-10-14T15:52:55.190Z,74.80
2017-10-14T15:55:22.703Z,74.60
2017-10-14T15:57:50.172Z,75.10
2017-10-14T16:00:18.465Z,75.40
2017-10-14T16:02:45.945Z,75.30
2017-10-14T16:05:13.429Z,75.50
2017-10-14T16:07:40.903Z,76.00
2017-10-14T16:10:08.360Z,76.30
2017-10-14T16:12:35.825Z,76.40
2017-10-14T16:15:04.073Z,76.70
2017-10-14T16:17:31.645Z,76.60
2017-10-14T16:19:59.205Z,77.00
2017-10-14T16:22:26.668Z,77.10
2017-10-14T16:24:54.144Z,77.30
2017-10-14T16:27:21.687Z,77.60
2017-10-14T16:29:49.932Z,78.00
2017-10-14T16:32:17.401Z,77.80
2017-10-14T16:34:45.639Z,78.30
2017-10-14T16:37:13.147Z,78.30
2017-10-14T16:39:40.751Z,78.40
2017-10-14T16:42:08.239Z,78.70
2017-10-14T16:44:35.761Z,78.80
2017-10-14T16:47:03.235Z,79.00
2017-10-14T16:49:30.705Z,79.10
2017-10-14T16:51:58.192Z,79.20
2017-10-14T16:54:25.710Z,79.40
2017-10-14T16:56:53.189Z,79.30
2017-10-14T16:59:20.757Z,79.50
2017-10-14T17:01:48.313Z,79.60
2017-10-14T17:04:15.778Z,79.80
2017-10-14T17:06:43.245Z,79.80
2017-10-14T17:09:11.492Z,80.10
2017-10-14T17:11:38.961Z,80.10
2017-10-14T17:14:06.452Z,80.20
2017-10-14T17:16:33.955Z,80.40
2017-10-14T17:19:01.505Z,80.40
2017-10-14T17:21:28.986Z,80.50
2017-10-14T17:23:57.221Z,80.90
2017-10-14T17:26:24.741Z,80.80
2017-10-14T17:28:52.978Z,81.20
2017-10-14T17:31:20.549Z,81.20
2017-10-14T17:33:48.782Z,81.40
2017-10-14T17:36:16.261Z,81.30
2017-10-14T17:38:43.854Z,81.50
2017-10-14T17:41:11.453Z,81.60
2017-10-14T17:43:38.928Z,81.70
2017-10-14T17:46:06.409Z,81.70
2017-10-14T17:48:33.879Z,81.90
2017-10-14T17:51:01.518Z,82.00
2017-10-14T17:53:29.002Z,82.20
2017-10-14T17:55:56.459Z,82.00
2017-10-14T17:58:23.994Z,82.40
2017-10-14T18:00:51.452Z,82.70
2017-10-14T18:03:18.917Z,82.70
2017-10-14T18:05:46.467Z,82.60
2017-10-14T18:08:13.930Z,83.10
2017-10-14T18:10:41.399Z,83.40
2017-10-14T18:13:08.867Z,83.50
2017-10-14T18:15:37.129Z,83.40
2017-10-14T18:18:06.113Z,83.30
2017-10-14T18:20:33.668Z,83.30
2017-10-14T18:23:01.243Z,83.50
2017-10-14T18:25:29.468Z,83.50
2017-10-14T18:27:56.974Z,83.60
2017-10-14T18:30:25.205Z,83.60
2017-10-14T18:32:52.705Z,83.50
2017-10-14T18:35:20.957Z,83.40
2017-10-14T18:37:48.506Z,83.40
2017-10-14T18:40:16.046Z,83.40
2017-10-14T18:42:43.569Z,83.40
2017-10-14T18:45:11.798Z,84.40
2017-10-14T18:47:39.259Z,83.50
2017-10-14T18:50:06.743Z,83.70
2017-10-14T18:52:34.218Z,84.20
2017-10-14T18:55:02.470Z,84.50
2017-10-14T18:57:30.023Z,84.50
2017-10-14T18:59:57.553Z,84.10
2017-10-14T19:02:25.109Z,84.30
2017-10-14T19:04:52.582Z,84.50
2017-10-14T19:07:20.062Z,84.50
2017-10-14T19:09:47.513Z,84.40
2017-10-14T19:12:15.073Z,84.70
2017-10-14T19:14:42.552Z,85.00
2017-10-14T19:17:10.791Z,84.90
2017-10-14T19:19:38.260Z,84.90
2017-10-14T19:22:05.826Z,85.20
2017-10-14T19:24:34.070Z,85.50
2017-10-14T19:27:01.542Z,85.50
2017-10-14T19:29:29.019Z,86.00
2017-10-14T19:31:57.267Z,86.20
2017-10-14T19:34:24.929Z,86.20
2017-10-14T19:36:52.404Z,86.10
2017-10-14T19:39:19.871Z,86.10
2017-10-14T19:41:47.337Z,86.00
2017-10-14T19:44:15.557Z,85.80
2017-10-14T19:46:43.057Z,85.60
2017-10-14T19:49:10.520Z,85.60
2017-10-14T19:51:38.748Z,85.50
2017-10-14T19:54:06.213Z,85.40
2017-10-14T19:56:33.752Z,85.30
2017-10-14T19:59:01.222Z,85.60
2017-10-14T20:01:28.807Z,85.50
2017-10-14T20:03:56.285Z,85.60
2017-10-14T20:06:24.568Z,86.20
2017-10-14T20:08:52.819Z,86.70
2017-10-14T20:11:21.100Z,86.20
2017-10-14T20:13:49.349Z,86.50
2017-10-14T20:16:16.812Z,86.10
2017-10-14T20:18:44.291Z,86.20
2017-10-14T20:21:11.900Z,86.20
2017-10-14T20:23:39.369Z,86.10
2017-10-14T20:26:06.842Z,86.10
2017-10-14T20:28:34.318Z,86.10
2017-10-14T20:31:01.867Z,86.00
2017-10-14T20:33:29.382Z,86.00
2017-10-14T20:35:56.851Z,85.90
2017-10-14T20:38:24.323Z,86.00
2017-10-14T20:40:51.812Z,85.90
2017-10-14T20:43:19.303Z,85.90
2017-10-14T20:45:46.773Z,85.90
2017-10-14T20:48:14.240Z,85.80
2017-10-14T20:50:41.709Z,85.70
2017-10-14T20:53:09.169Z,85.60
2017-10-14T20:55:36.642Z,85.40
2017-10-14T20:58:05.614Z,85.30
2017-10-14T21:00:33.152Z,85.30
2017-10-14T21:03:00.611Z,85.10
2017-10-14T21:05:28.077Z,85.00
2017-10-14T21:07:55.538Z,85.10
2017-10-14T21:10:23.012Z,85.00
2017-10-14T21:12:50.477Z,85.00
2017-10-14T21:15:17.955Z,85.20
2017-10-14T21:17:46.239Z,85.70
2017-10-14T21:20:13.741Z,85.60
2017-10-14T21:22:41.217Z,85.80
2017-10-14T21:25:08.680Z,85.70
2017-10-14T21:27:36.241Z,85.60
2017-10-14T21:30:03.714Z,85.50
2017-10-14T21:32:31.958Z,85.60
2017-10-14T21:34:59.441Z,85.50
2017-10-14T21:37:27.682Z,86.10
2017-10-14T21:39:55.201Z,86.10
2017-10-14T21:42:22.671Z,85.90
2017-10-14T21:44:50.138Z,85.70
2017-10-14T21:47:17.684Z,85.80
2017-10-14T21:49:45.154Z,86.40
2017-10-14T21:52:12.748Z,86.20
2017-10-14T21:54:40.974Z,85.60
2017-10-14T21:57:08.453Z,85.60
2017-10-14T21:59:35.954Z,85.60
2017-10-14T22:02:04.199Z,85.70
2017-10-14T22:04:31.765Z,85.70
2017-10-14T22:06:59.326Z,85.90
2017-10-14T22:09:26.813Z,85.80
2017-10-14T22:11:55.114Z,85.70
2017-10-14T22:14:22.602Z,85.50
2017-10-14T22:16:50.185Z,85.70
2017-10-14T22:19:18.433Z,85.70
2017-10-14T22:21:45.930Z,85.60
2017-10-14T22:24:14.169Z,85.60
2017-10-14T22:26:41.754Z,85.60
2017-10-14T22:29:10.080Z,85.50
2017-10-14T22:31:37.563Z,85.30
2017-10-14T22:34:05.028Z,85.30
2017-10-14T22:36:32.530Z,85.20
2017-10-14T22:38:59.993Z,85.30
2017-10-14T22:41:27.472Z,85.30
2017-10-14T22:43:54.965Z,85.40
2017-10-14T22:46:22.469Z,85.50
2017-10-14T22:48:49.974Z,85.80
2017-10-14T22:51:17.462Z,85.30
2017-10-14T22:53:45.694Z,85.40
2017-10-14T22:56:13.166Z,85.30
2017-10-14T22:58:40.678Z,85.50
2017-10-14T23:01:08.148Z,85.40
2017-10-14T23:03:35.664Z,85.40
2017-10-14T23:06:03.931Z,85.40
2017-10-14T23:08:31.434Z,85.30
2017-10-14T23:10:58.961Z,85.30
2017-10-14T23:13:26.438Z,85.50
2017-10-14T23:15:53.965Z,85.40
2017-10-14T23:18:22.296Z,85.30
2017-10-14T23:20:49.770Z,85.30
2017-10-14T23:23:17.498Z,85.30
2017-10-14T23:25:44.971Z,85.50
2017-10-14T23:28:12.444Z,85.60
2017-10-14T23:30:39.921Z,85.60
2017-10-14T23:33:08.349Z,85.70
2017-10-14T23:35:35.833Z,86.40
2017-10-14T23:38:03.318Z,85.60
2017-10-14T23:40:31.570Z,85.60
2017-10-14T23:42:59.154Z,85.60
2017-10-14T23:45:27.421Z,85.50
2017-10-14T23:47:54.986Z,85.40
2017-10-14T23:50:23.232Z,85.40
2017-10-14T23:52:50.710Z,85.40
2017-10-14T23:55:18.180Z,85.40
2017-10-14T23:57:46.453Z,85.20
